sensor_id;sensor_type;location;lat;lon;timestamp;P1;durP1;ratioP1;P2;durP2;ratioP2
317;SDS011;146;53.448;10.228;2023-03-23T00:00:22;4.77;;;4.37;;
317;SDS011;146;53.448;10.228;2023-03-23T00:02:49;6.63;;;5.50;;
317;SDS011;146;53.448;10.228;2023-03-23T00:05:16;5.03;;;4.53;;
317;SDS011;146;53.448;10.228;2023-03-23T00:07:42;6.07;;;4.80;;
317;SDS011;146;53.448;10.228;2023-03-23T00:10:10;6.13;;;5.20;;
317;SDS011;146;53.448;10.228;2023-03-23T00:12:37;6.17;;;5.57;;
317;SDS011;146;53.448;10.228;2023-03-23T00:15:08;6.23;;;5.70;;
317;SDS011;146;53.448;10.228;2023-03-23T00:17:39;6.50;;;5.73;;
317;SDS011;146;53.448;10.228;2023-03-23T00:20:06;6.03;;;5.37;;
317;SDS011;146;53.448;10.228;2023-03-23T00:22:37;6.47;;;5.50;;
317;SDS011;146;53.448;10.228;2023-03-23T00:25:06;6.90;;;5.80;;
317;SDS011;146;53.448;10.228;2023-03-23T00:27:34;7.40;;;6.43;;
317;SDS011;146;53.448;10.228;2023-03-23T00:30:01;7.30;;;6.70;;
317;SDS011;146;53.448;10.228;2023-03-23T00:32:31;6.67;;;6.00;;
317;SDS011;146;53.448;10.228;2023-03-23T00:35:02;8.70;;;6.80;;
317;SDS011;146;53.448;10.228;2023-03-23T00:37:32;8.60;;;7.70;;
317;SDS011;146;53.448;10.228;2023-03-23T00:40:03;7.67;;;6.87;;
317;SDS011;146;53.448;10.228;2023-03-23T00:42:34;13.83;;;9.10;;
317;SDS011;146;53.448;10.228;2023-03-23T00:45:06;8.57;;;7.77;;
317;SDS011;146;53.448;10.228;2023-03-23T00:47:35;9.47;;;7.50;;
317;SDS011;146;53.448;10.228;2023-03-23T00:50:12;11.90;;;8.20;;
317;SDS011;146;53.448;10.228;2023-03-23T00:52:39;8.00;;;7.30;;
317;SDS011;146;53.448;10.228;2023-03-23T00:55:08;8.80;;;6.50;;
317;SDS011;146;53.448;10.228;2023-03-23T00:57:35;8.63;;;7.83;;
317;SDS011;146;53.448;10.228;2023-03-23T01:00:02;8.00;;;6.80;;
317;SDS011;146;53.448;10.228;2023-03-23T01:02:34;7.93;;;7.13;;
317;SDS011;146;53.448;10.228;2023-03-23T01:05:00;8.13;;;6.60;;
317;SDS011;146;53.448;10.228;2023-03-23T01:07:31;8.03;;;6.70;;
317;SDS011;146;53.448;10.228;2023-03-23T01:09:58;7.87;;;7.17;;
317;SDS011;146;53.448;10.228;2023-03-23T01:12:25;8.77;;;7.87;;
317;SDS011;146;53.448;10.228;2023-03-23T01:14:52;10.10;;;8.40;;
317;SDS011;146;53.448;10.228;2023-03-23T01:17:19;11.10;;;7.73;;
317;SDS011;146;53.448;10.228;2023-03-23T01:19:48;8.73;;;7.60;;
317;SDS011;146;53.448;10.228;2023-03-23T01:22:15;10.63;;;7.70;;
317;SDS011;146;53.448;10.228;2023-03-23T01:24:43;9.40;;;8.40;;
317;SDS011;146;53.448;10.228;2023-03-23T01:27:10;9.10;;;7.80;;
317;SDS011;146;53.448;10.228;2023-03-23T01:29:37;9.10;;;8.20;;
317;SDS011;146;53.448;10.228;2023-03-23T01:32:04;9.17;;;8.10;;
317;SDS011;146;53.448;10.228;2023-03-23T01:34:31;10.67;;;8.27;;
317;SDS011;146;53.448;10.228;2023-03-23T01:36:58;9.13;;;7.73;;
317;SDS011;146;53.448;10.228;2023-03-23T01:39:25;8.63;;;7.00;;
317;SDS011;146;53.448;10.228;2023-03-23T01:41:59;11.17;;;7.67;;
317;SDS011;146;53.448;10.228;2023-03-23T01:47:41;9.60;;;8.70;;
317;SDS011;146;53.448;10.228;2023-03-23T01:50:09;12.17;;;8.10;;
317;SDS011;146;53.448;10.228;2023-03-23T01:52:36;9.13;;;8.03;;
317;SDS011;146;53.448;10.228;2023-03-23T01:55:13;9.47;;;8.57;;
317;SDS011;146;53.448;10.228;2023-03-23T01:57:43;8.50;;;7.60;;
317;SDS011;146;53.448;10.228;2023-03-23T02:00:10;9.33;;;8.43;;
317;SDS011;146;53.448;10.228;2023-03-23T02:02:40;7.87;;;7.17;;
317;SDS011;146;53.448;10.228;2023-03-23T02:05:13;9.10;;;7.90;;
317;SDS011;146;53.448;10.228;2023-03-23T02:07:44;9.40;;;8.17;;
317;SDS011;146;53.448;10.228;2023-03-23T02:10:12;13.43;;;7.93;;
317;SDS011;146;53.448;10.228;2023-03-23T02:12:43;7.83;;;7.13;;
317;SDS011;146;53.448;10.228;2023-03-23T02:15:10;7.53;;;6.77;;
317;SDS011;146;53.448;10.228;2023-03-23T02:17:38;11.50;;;8.90;;
317;SDS011;146;53.448;10.228;2023-03-23T02:20:19;8.10;;;7.40;;
317;SDS011;146;53.448;10.228;2023-03-23T02:23:05;8.57;;;7.83;;
317;SDS011;146;53.448;10.228;2023-03-23T02:25:58;9.90;;;8.87;;
317;SDS011;146;53.448;10.228;2023-03-23T02:31:33;10.00;;;7.73;;
317;SDS011;146;53.448;10.228;2023-03-23T02:34:21;11.20;;;8.90;;
317;SDS011;146;53.448;10.228;2023-03-23T02:36:55;9.83;;;7.40;;
317;SDS011;146;53.448;10.228;2023-03-23T02:39:26;8.70;;;7.80;;
317;SDS011;146;53.448;10.228;2023-03-23T02:42:04;8.80;;;8.03;;
317;SDS011;146;53.448;10.228;2023-03-23T02:44:38;9.27;;;8.27;;
317;SDS011;146;53.448;10.228;2023-03-23T02:47:20;10.93;;;9.50;;
317;SDS011;146;53.448;10.228;2023-03-23T02:49:51;9.70;;;8.73;;
317;SDS011;146;53.448;10.228;2023-03-23T02:52:22;8.70;;;8.00;;
317;SDS011;146;53.448;10.228;2023-03-23T02:54:52;8.40;;;7.60;;
317;SDS011;146;53.448;10.228;2023-03-23T02:57:24;10.37;;;8.73;;
317;SDS011;146;53.448;10.228;2023-03-23T02:59:52;7.87;;;7.17;;
317;SDS011;146;53.448;10.228;2023-03-23T03:02:25;10.30;;;8.87;;
317;SDS011;146;53.448;10.228;2023-03-23T03:04:56;9.90;;;9.00;;
317;SDS011;146;53.448;10.228;2023-03-23T03:07:47;9.10;;;8.20;;
317;SDS011;146;53.448;10.228;2023-03-23T03:10:24;9.13;;;8.23;;
317;SDS011;146;53.448;10.228;2023-03-23T03:12:55;9.30;;;8.27;;
317;SDS011;146;53.448;10.228;2023-03-23T03:15:30;8.70;;;7.90;;
317;SDS011;146;53.448;10.228;2023-03-23T03:18:07;10.30;;;9.20;;
317;SDS011;146;53.448;10.228;2023-03-23T03:20:42;10.50;;;9.20;;
317;SDS011;146;53.448;10.228;2023-03-23T03:23:13;9.97;;;9.00;;
317;SDS011;146;53.448;10.228;2023-03-23T03:25:45;10.13;;;8.53;;
317;SDS011;146;53.448;10.228;2023-03-23T03:28:19;9.13;;;8.23;;
317;SDS011;146;53.448;10.228;2023-03-23T03:30:47;9.50;;;8.53;;
317;SDS011;146;53.448;10.228;2023-03-23T03:33:26;10.20;;;9.17;;
317;SDS011;146;53.448;10.228;2023-03-23T03:36:03;10.27;;;9.17;;
317;SDS011;146;53.448;10.228;2023-03-23T03:38:40;9.17;;;8.37;;
317;SDS011;146;53.448;10.228;2023-03-23T03:41:07;10.60;;;9.63;;
317;SDS011;146;53.448;10.228;2023-03-23T03:43:37;9.27;;;8.30;;
317;SDS011;146;53.448;10.228;2023-03-23T03:46:07;11.20;;;10.10;;
317;SDS011;146;53.448;10.228;2023-03-23T03:48:33;9.50;;;8.60;;
317;SDS011;146;53.448;10.228;2023-03-23T03:51:10;10.13;;;9.00;;
317;SDS011;146;53.448;10.228;2023-03-23T03:53:37;9.10;;;8.40;;
317;SDS011;146;53.448;10.228;2023-03-23T03:56:04;10.67;;;9.67;;
317;SDS011;146;53.448;10.228;2023-03-23T03:58:32;11.07;;;9.80;;
317;SDS011;146;53.448;10.228;2023-03-23T04:01:01;10.10;;;9.20;;
317;SDS011;146;53.448;10.228;2023-03-23T04:03:33;10.40;;;9.40;;
317;SDS011;146;53.448;10.228;2023-03-23T04:06:00;11.20;;;10.20;;
317;SDS011;146;53.448;10.228;2023-03-23T04:08:31;10.70;;;9.53;;
317;SDS011;146;53.448;10.228;2023-03-23T04:11:01;11.73;;;10.53;;
317;SDS011;146;53.448;10.228;2023-03-23T04:13:31;9.70;;;8.90;;
317;SDS011;146;53.448;10.228;2023-03-23T04:15:57;10.70;;;9.70;;
317;SDS011;146;53.448;10.228;2023-03-23T04:18:33;11.33;;;10.20;;
317;SDS011;146;53.448;10.228;2023-03-23T04:21:02;9.93;;;9.00;;
317;SDS011;146;53.448;10.228;2023-03-23T04:23:34;10.10;;;9.20;;
317;SDS011;146;53.448;10.228;2023-03-23T04:26:01;11.30;;;10.20;;
317;SDS011;146;53.448;10.228;2023-03-23T04:28:32;11.37;;;10.23;;
317;SDS011;146;53.448;10.228;2023-03-23T04:31:05;11.27;;;10.23;;
317;SDS011;146;53.448;10.228;2023-03-23T04:33:32;10.23;;;9.23;;
317;SDS011;146;53.448;10.228;2023-03-23T04:35:59;11.40;;;10.40;;
317;SDS011;146;53.448;10.228;2023-03-23T04:38:27;10.93;;;10.03;;
317;SDS011;146;53.448;10.228;2023-03-23T04:41:03;8.97;;;8.23;;
317;SDS011;146;53.448;10.228;2023-03-23T04:43:30;11.97;;;10.87;;
317;SDS011;146;53.448;10.228;2023-03-23T04:46:06;11.60;;;10.40;;
317;SDS011;146;53.448;10.228;2023-03-23T04:48:34;14.13;;;11.03;;
317;SDS011;146;53.448;10.228;2023-03-23T04:51:01;12.13;;;11.00;;
317;SDS011;146;53.448;10.228;2023-03-23T04:53:29;10.93;;;9.93;;
317;SDS011;146;53.448;10.228;2023-03-23T04:55:59;12.20;;;11.13;;
317;SDS011;146;53.448;10.228;2023-03-23T04:58:30;10.70;;;9.70;;
317;SDS011;146;53.448;10.228;2023-03-23T05:00:58;10.60;;;9.60;;
317;SDS011;146;53.448;10.228;2023-03-23T05:03:26;11.73;;;10.60;;
317;SDS011;146;53.448;10.228;2023-03-23T05:06:01;10.00;;;9.10;;
317;SDS011;146;53.448;10.228;2023-03-23T05:08:31;9.53;;;8.53;;
317;SDS011;146;53.448;10.228;2023-03-23T05:11:05;10.17;;;9.13;;
317;SDS011;146;53.448;10.228;2023-03-23T05:13:33;9.87;;;9.07;;
317;SDS011;146;53.448;10.228;2023-03-23T05:16:03;8.47;;;7.73;;
317;SDS011;146;53.448;10.228;2023-03-23T05:18:31;7.83;;;7.03;;
317;SDS011;146;53.448;10.228;2023-03-23T05:21:04;8.50;;;7.60;;
317;SDS011;146;53.448;10.228;2023-03-23T05:23:31;8.90;;;7.53;;
317;SDS011;146;53.448;10.228;2023-03-23T05:26:01;8.10;;;7.27;;
317;SDS011;146;53.448;10.228;2023-03-23T05:28:32;7.43;;;6.60;;
317;SDS011;146;53.448;10.228;2023-03-23T05:31:01;7.80;;;7.00;;
317;SDS011;146;53.448;10.228;2023-03-23T05:33:34;9.30;;;7.90;;
317;SDS011;146;53.448;10.228;2023-03-23T05:36:01;7.17;;;6.57;;
317;SDS011;146;53.448;10.228;2023-03-23T05:38:31;6.60;;;6.00;;
317;SDS011;146;53.448;10.228;2023-03-23T05:40:58;7.13;;;6.53;;
317;SDS011;146;53.448;10.228;2023-03-23T05:43:29;6.87;;;6.17;;
317;SDS011;146;53.448;10.228;2023-03-23T05:46:02;6.80;;;6.20;;
317;SDS011;146;53.448;10.228;2023-03-23T05:48:32;7.10;;;6.40;;
317;SDS011;146;53.448;10.228;2023-03-23T05:51:02;6.50;;;5.90;;
317;SDS011;146;53.448;10.228;2023-03-23T05:53:29;8.57;;;5.83;;
317;SDS011;146;53.448;10.228;2023-03-23T05:55:58;6.23;;;5.70;;
317;SDS011;146;53.448;10.228;2023-03-23T05:58:25;6.30;;;5.80;;
317;SDS011;146;53.448;10.228;2023-03-23T06:00:52;7.27;;;5.70;;
317;SDS011;146;53.448;10.228;2023-03-23T06:03:21;5.30;;;4.90;;
317;SDS011;146;53.448;10.228;2023-03-23T06:05:48;5.63;;;5.13;;
317;SDS011;146;53.448;10.228;2023-03-23T06:08:15;6.13;;;5.53;;
317;SDS011;146;53.448;10.228;2023-03-23T06:10:42;5.60;;;5.20;;
317;SDS011;146;53.448;10.228;2023-03-23T06:13:14;5.17;;;4.67;;
317;SDS011;146;53.448;10.228;2023-03-23T06:15:41;5.10;;;4.70;;
317;SDS011;146;53.448;10.228;2023-03-23T06:18:08;4.90;;;4.40;;
317;SDS011;146;53.448;10.228;2023-03-23T06:20:42;4.30;;;3.90;;
317;SDS011;146;53.448;10.228;2023-03-23T06:23:09;5.37;;;4.83;;
317;SDS011;146;53.448;10.228;2023-03-23T06:25:35;4.90;;;4.40;;
317;SDS011;146;53.448;10.228;2023-03-23T06:28:02;4.27;;;3.87;;
317;SDS011;146;53.448;10.228;2023-03-23T06:30:29;4.60;;;4.23;;
317;SDS011;146;53.448;10.228;2023-03-23T06:32:56;4.50;;;4.10;;
317;SDS011;146;53.448;10.228;2023-03-23T06:35:29;3.90;;;3.60;;
317;SDS011;146;53.448;10.228;2023-03-23T06:37:59;5.73;;;3.77;;
317;SDS011;146;53.448;10.228;2023-03-23T06:40:26;5.90;;;3.83;;
317;SDS011;146;53.448;10.228;2023-03-23T06:42:54;3.83;;;3.37;;
317;SDS011;146;53.448;10.228;2023-03-23T06:45:22;4.30;;;3.90;;
317;SDS011;146;53.448;10.228;2023-03-23T06:48:02;3.90;;;3.60;;
317;SDS011;146;53.448;10.228;2023-03-23T06:50:28;5.20;;;4.07;;
317;SDS011;146;53.448;10.228;2023-03-23T06:53:02;3.63;;;3.43;;
317;SDS011;146;53.448;10.228;2023-03-23T06:55:33;4.20;;;3.90;;
317;SDS011;146;53.448;10.228;2023-03-23T06:58:02;4.00;;;3.70;;
317;SDS011;146;53.448;10.228;2023-03-23T07:00:33;3.60;;;3.40;;
317;SDS011;146;53.448;10.228;2023-03-23T07:03:00;3.33;;;3.07;;
317;SDS011;146;53.448;10.228;2023-03-23T07:05:27;3.67;;;3.37;;
317;SDS011;146;53.448;10.228;2023-03-23T07:07:58;4.20;;;3.80;;
317;SDS011;146;53.448;10.228;2023-03-23T07:10:29;3.67;;;3.37;;
317;SDS011;146;53.448;10.228;2023-03-23T07:12:59;3.90;;;3.57;;
317;SDS011;146;53.448;10.228;2023-03-23T07:15:28;3.70;;;3.40;;
317;SDS011;146;53.448;10.228;2023-03-23T07:17:56;3.70;;;3.40;;
317;SDS011;146;53.448;10.228;2023-03-23T07:20:22;3.00;;;2.80;;
317;SDS011;146;53.448;10.228;2023-03-23T07:22:55;4.07;;;3.77;;
317;SDS011;146;53.448;10.228;2023-03-23T07:25:30;3.50;;;3.30;;
317;SDS011;146;53.448;10.228;2023-03-23T07:27:57;5.63;;;3.23;;
317;SDS011;146;53.448;10.228;2023-03-23T07:30:28;3.50;;;3.20;;
317;SDS011;146;53.448;10.228;2023-03-23T07:33:09;4.20;;;3.80;;
317;SDS011;146;53.448;10.228;2023-03-23T07:35:42;3.63;;;3.33;;
317;SDS011;146;53.448;10.228;2023-03-23T07:38:09;4.40;;;4.10;;
317;SDS011;146;53.448;10.228;2023-03-23T07:40:37;3.27;;;3.07;;
317;SDS011;146;53.448;10.228;2023-03-23T07:43:04;4.30;;;3.87;;
317;SDS011;146;53.448;10.228;2023-03-23T07:45:31;4.20;;;3.63;;
317;SDS011;146;53.448;10.228;2023-03-23T07:48:10;4.50;;;4.10;;
317;SDS011;146;53.448;10.228;2023-03-23T07:50:37;4.60;;;3.80;;
317;SDS011;146;53.448;10.228;2023-03-23T07:53:04;4.10;;;3.80;;
317;SDS011;146;53.448;10.228;2023-03-23T07:55:31;4.07;;;3.73;;
317;SDS011;146;53.448;10.228;2023-03-23T07:57:59;4.00;;;3.00;;
317;SDS011;146;53.448;10.228;2023-03-23T08:00:26;3.90;;;3.60;;
317;SDS011;146;53.448;10.228;2023-03-23T08:02:56;3.73;;;3.40;;
317;SDS011;146;53.448;10.228;2023-03-23T08:05:24;3.43;;;3.23;;
317;SDS011;146;53.448;10.228;2023-03-23T08:07:55;4.83;;;4.43;;
317;SDS011;146;53.448;10.228;2023-03-23T08:10:22;4.07;;;3.77;;
317;SDS011;146;53.448;10.228;2023-03-23T08:12:53;3.57;;;3.37;;
317;SDS011;146;53.448;10.228;2023-03-23T08:15:23;4.40;;;4.00;;
317;SDS011;146;53.448;10.228;2023-03-23T08:18:03;4.50;;;4.20;;
317;SDS011;146;53.448;10.228;2023-03-23T08:20:40;4.33;;;4.03;;
317;SDS011;146;53.448;10.228;2023-03-23T08:23:06;4.77;;;4.37;;
317;SDS011;146;53.448;10.228;2023-03-23T08:25:34;4.73;;;4.43;;
317;SDS011;146;53.448;10.228;2023-03-23T08:28:01;5.00;;;4.43;;
317;SDS011;146;53.448;10.228;2023-03-23T08:30:30;4.80;;;4.40;;
317;SDS011;146;53.448;10.228;2023-03-23T08:32:59;4.40;;;4.00;;
317;SDS011;146;53.448;10.228;2023-03-23T08:35:29;5.27;;;4.87;;
317;SDS011;146;53.448;10.228;2023-03-23T08:37:56;4.53;;;4.13;;
317;SDS011;146;53.448;10.228;2023-03-23T08:40:23;4.20;;;3.90;;
317;SDS011;146;53.448;10.228;2023-03-23T08:42:57;4.27;;;3.90;;
317;SDS011;146;53.448;10.228;2023-03-23T08:45:24;5.17;;;4.67;;
317;SDS011;146;53.448;10.228;2023-03-23T08:47:59;4.80;;;4.40;;
317;SDS011;146;53.448;10.228;2023-03-23T08:50:27;4.33;;;3.93;;
317;SDS011;146;53.448;10.228;2023-03-23T08:52:58;4.20;;;3.90;;
317;SDS011;146;53.448;10.228;2023-03-23T08:55:26;3.40;;;3.07;;
317;SDS011;146;53.448;10.228;2023-03-23T08:57:53;2.50;;;2.40;;
317;SDS011;146;53.448;10.228;2023-03-23T09:00:26;2.37;;;2.17;;
317;SDS011;146;53.448;10.228;2023-03-23T09:02:57;1.47;;;1.37;;
317;SDS011;146;53.448;10.228;2023-03-23T09:05:25;1.40;;;1.30;;
317;SDS011;146;53.448;10.228;2023-03-23T09:07:54;2.40;;;1.17;;
317;SDS011;146;53.448;10.228;2023-03-23T09:10:29;1.33;;;1.20;;
317;SDS011;146;53.448;10.228;2023-03-23T09:12:59;1.10;;;1.00;;
317;SDS011;146;53.448;10.228;2023-03-23T09:15:26;1.17;;;1.07;;
317;SDS011;146;53.448;10.228;2023-03-23T09:17:53;1.77;;;1.20;;
317;SDS011;146;53.448;10.228;2023-03-23T09:23:13;1.40;;;1.27;;
317;SDS011;146;53.448;10.228;2023-03-23T09:25:40;2.20;;;1.10;;
317;SDS011;146;53.448;10.228;2023-03-23T09:28:16;1.03;;;0.97;;
317;SDS011;146;53.448;10.228;2023-03-23T09:30:42;2.10;;;1.20;;
317;SDS011;146;53.448;10.228;2023-03-23T09:33:10;3.30;;;1.60;;
317;SDS011;146;53.448;10.228;2023-03-23T09:35:45;1.43;;;1.33;;
317;SDS011;146;53.448;10.228;2023-03-23T09:38:14;6.47;;;1.53;;
317;SDS011;146;53.448;10.228;2023-03-23T09:40:45;3.10;;;1.90;;
317;SDS011;146;53.448;10.228;2023-03-23T09:43:28;3.27;;;1.77;;
317;SDS011;146;53.448;10.228;2023-03-23T09:46:13;3.63;;;1.50;;
317;SDS011;146;53.448;10.228;2023-03-23T09:48:53;4.00;;;1.63;;
317;SDS011;146;53.448;10.228;2023-03-23T09:54:10;1.97;;;1.53;;
317;SDS011;146;53.448;10.228;2023-03-23T09:56:41;3.70;;;1.47;;
317;SDS011;146;53.448;10.228;2023-03-23T09:59:12;1.70;;;1.60;;
317;SDS011;146;53.448;10.228;2023-03-23T10:01:45;3.47;;;1.57;;
317;SDS011;146;53.448;10.228;2023-03-23T10:04:18;2.10;;;1.63;;
317;SDS011;146;53.448;10.228;2023-03-23T10:06:59;3.20;;;1.93;;
317;SDS011;146;53.448;10.228;2023-03-23T10:09:35;3.43;;;2.10;;
317;SDS011;146;53.448;10.228;2023-03-23T10:12:04;3.07;;;1.73;;
317;SDS011;146;53.448;10.228;2023-03-23T10:14:48;5.23;;;2.23;;
317;SDS011;146;53.448;10.228;2023-03-23T10:17:32;3.90;;;2.23;;
317;SDS011;146;53.448;10.228;2023-03-23T10:20:05;6.17;;;1.80;;
317;SDS011;146;53.448;10.228;2023-03-23T10:22:46;3.10;;;1.60;;
317;SDS011;146;53.448;10.228;2023-03-23T10:25:31;3.87;;;2.57;;
317;SDS011;146;53.448;10.228;2023-03-23T10:28:03;5.07;;;2.90;;
317;SDS011;146;53.448;10.228;2023-03-23T10:30:35;3.90;;;2.30;;
317;SDS011;146;53.448;10.228;2023-03-23T10:33:08;3.83;;;1.90;;
317;SDS011;146;53.448;10.228;2023-03-23T10:35:39;5.13;;;2.30;;
317;SDS011;146;53.448;10.228;2023-03-23T10:38:13;4.00;;;2.30;;
317;SDS011;146;53.448;10.228;2023-03-23T10:40:45;3.27;;;1.90;;
317;SDS011;146;53.448;10.228;2023-03-23T10:43:16;3.10;;;2.70;;
317;SDS011;146;53.448;10.228;2023-03-23T10:45:43;7.50;;;2.67;;
317;SDS011;146;53.448;10.228;2023-03-23T10:48:14;5.43;;;2.37;;
317;SDS011;146;53.448;10.228;2023-03-23T10:50:52;10.93;;;3.00;;
317;SDS011;146;53.448;10.228;2023-03-23T10:53:32;3.07;;;2.57;;
317;SDS011;146;53.448;10.228;2023-03-23T10:56:03;8.70;;;2.80;;
317;SDS011;146;53.448;10.228;2023-03-23T10:58:46;5.40;;;2.97;;
317;SDS011;146;53.448;10.228;2023-03-23T11:01:13;8.33;;;3.03;;
317;SDS011;146;53.448;10.228;2023-03-23T11:03:47;4.67;;;2.40;;
317;SDS011;146;53.448;10.228;2023-03-23T11:06:27;2.60;;;2.30;;
317;SDS011;146;53.448;10.228;2023-03-23T11:09:00;8.53;;;3.30;;
317;SDS011;146;53.448;10.228;2023-03-23T11:11:39;6.00;;;2.90;;
317;SDS011;146;53.448;10.228;2023-03-23T11:14:14;4.83;;;2.53;;
317;SDS011;146;53.448;10.228;2023-03-23T11:16:46;4.97;;;2.30;;
317;SDS011;146;53.448;10.228;2023-03-23T11:19:27;8.60;;;3.20;;
317;SDS011;146;53.448;10.228;2023-03-23T11:22:26;4.90;;;3.20;;
317;SDS011;146;53.448;10.228;2023-03-23T11:25:13;7.70;;;2.70;;
317;SDS011;146;53.448;10.228;2023-03-23T11:27:41;5.00;;;3.87;;
317;SDS011;146;53.448;10.228;2023-03-23T11:33:12;4.53;;;2.63;;
317;SDS011;146;53.448;10.228;2023-03-23T11:39:18;6.23;;;3.20;;
317;SDS011;146;53.448;10.228;2023-03-23T11:42:13;5.90;;;2.80;;
317;SDS011;146;53.448;10.228;2023-03-23T11:44:45;5.37;;;2.97;;
317;SDS011;146;53.448;10.228;2023-03-23T11:47:18;5.33;;;3.30;;
317;SDS011;146;53.448;10.228;2023-03-23T11:52:19;9.10;;;3.30;;
317;SDS011;146;53.448;10.228;2023-03-23T11:54:57;5.40;;;3.23;;
317;SDS011;146;53.448;10.228;2023-03-23T11:57:34;7.93;;;2.43;;
317;SDS011;146;53.448;10.228;2023-03-23T12:00:51;6.00;;;3.80;;
317;SDS011;146;53.448;10.228;2023-03-23T12:03:11;2.60;;;2.40;;
317;SDS011;146;53.448;10.228;2023-03-23T12:06:13;4.37;;;2.90;;
317;SDS011;146;53.448;10.228;2023-03-23T12:09:10;6.20;;;2.90;;
317;SDS011;146;53.448;10.228;2023-03-23T12:17:48;2.40;;;2.00;;
317;SDS011;146;53.448;10.228;2023-03-23T12:20:35;4.70;;;2.60;;
317;SDS011;146;53.448;10.228;2023-03-23T12:23:49;3.70;;;3.00;;
317;SDS011;146;53.448;10.228;2023-03-23T12:26:58;3.47;;;2.50;;
317;SDS011;146;53.448;10.228;2023-03-23T12:32:39;4.63;;;2.00;;
317;SDS011;146;53.448;10.228;2023-03-23T12:35:25;4.90;;;3.07;;
317;SDS011;146;53.448;10.228;2023-03-23T12:38:02;3.93;;;2.40;;
317;SDS011;146;53.448;10.228;2023-03-23T12:41:18;4.13;;;2.60;;
317;SDS011;146;53.448;10.228;2023-03-23T12:43:58;5.20;;;2.73;;
317;SDS011;146;53.448;10.228;2023-03-23T12:49:45;4.23;;;3.13;;
317;SDS011;146;53.448;10.228;2023-03-23T12:52:16;7.37;;;2.93;;
317;SDS011;146;53.448;10.228;2023-03-23T12:54:58;6.20;;;3.00;;
317;SDS011;146;53.448;10.228;2023-03-23T12:57:30;5.53;;;2.50;;
317;SDS011;146;53.448;10.228;2023-03-23T13:00:02;3.50;;;3.20;;
317;SDS011;146;53.448;10.228;2023-03-23T13:02:39;3.90;;;3.20;;
317;SDS011;146;53.448;10.228;2023-03-23T13:05:47;5.43;;;3.17;;
317;SDS011;146;53.448;10.228;2023-03-23T13:08:50;3.97;;;3.20;;
317;SDS011;146;53.448;10.228;2023-03-23T13:11:30;6.00;;;2.67;;
317;SDS011;146;53.448;10.228;2023-03-23T13:14:01;4.73;;;3.87;;
317;SDS011;146;53.448;10.228;2023-03-23T13:16:42;3.33;;;2.77;;
317;SDS011;146;53.448;10.228;2023-03-23T13:19:16;2.93;;;2.70;;
317;SDS011;146;53.448;10.228;2023-03-23T13:21:56;4.10;;;3.70;;
317;SDS011;146;53.448;10.228;2023-03-23T13:24:31;3.40;;;3.10;;
317;SDS011;146;53.448;10.228;2023-03-23T13:27:02;3.30;;;3.00;;
317;SDS011;146;53.448;10.228;2023-03-23T13:29:31;2.60;;;2.37;;
317;SDS011;146;53.448;10.228;2023-03-23T13:32:05;4.70;;;2.40;;
317;SDS011;146;53.448;10.228;2023-03-23T13:34:38;3.37;;;2.40;;
317;SDS011;146;53.448;10.228;2023-03-23T13:37:18;2.23;;;1.90;;
317;SDS011;146;53.448;10.228;2023-03-23T13:39:49;2.83;;;2.63;;
317;SDS011;146;53.448;10.228;2023-03-23T13:42:18;4.03;;;2.60;;
317;SDS011;146;53.448;10.228;2023-03-23T13:45:04;3.80;;;2.27;;
317;SDS011;146;53.448;10.228;2023-03-23T13:47:36;3.67;;;2.93;;
317;SDS011;146;53.448;10.228;2023-03-23T13:50:09;4.63;;;2.63;;
317;SDS011;146;53.448;10.228;2023-03-23T13:52:46;2.43;;;2.23;;
317;SDS011;146;53.448;10.228;2023-03-23T13:55:20;3.37;;;2.10;;
317;SDS011;146;53.448;10.228;2023-03-23T13:57:58;4.17;;;2.27;;
317;SDS011;146;53.448;10.228;2023-03-23T14:03:46;2.80;;;2.30;;
317;SDS011;146;53.448;10.228;2023-03-23T14:06:16;2.87;;;2.10;;
317;SDS011;146;53.448;10.228;2023-03-23T14:08:48;6.27;;;2.37;;
317;SDS011;146;53.448;10.228;2023-03-23T14:11:20;3.67;;;2.13;;
317;SDS011;146;53.448;10.228;2023-03-23T14:14:02;2.30;;;2.10;;
317;SDS011;146;53.448;10.228;2023-03-23T14:16:32;2.23;;;1.63;;
317;SDS011;146;53.448;10.228;2023-03-23T14:19:18;2.40;;;1.43;;
317;SDS011;146;53.448;10.228;2023-03-23T14:21:49;2.17;;;1.97;;
317;SDS011;146;53.448;10.228;2023-03-23T14:24:19;3.07;;;1.80;;
317;SDS011;146;53.448;10.228;2023-03-23T14:27:01;1.90;;;1.40;;
317;SDS011;146;53.448;10.228;2023-03-23T14:29:41;4.73;;;1.83;;
317;SDS011;146;53.448;10.228;2023-03-23T14:32:12;5.30;;;2.47;;
317;SDS011;146;53.448;10.228;2023-03-23T14:34:42;4.40;;;1.27;;
317;SDS011;146;53.448;10.228;2023-03-23T14:37:14;1.50;;;1.03;;
317;SDS011;146;53.448;10.228;2023-03-23T14:39:47;1.30;;;1.20;;
317;SDS011;146;53.448;10.228;2023-03-23T14:42:28;2.43;;;1.50;;
317;SDS011;146;53.448;10.228;2023-03-23T14:44:59;1.90;;;1.63;;
317;SDS011;146;53.448;10.228;2023-03-23T14:47:32;2.90;;;1.40;;
317;SDS011;146;53.448;10.228;2023-03-23T14:50:04;1.57;;;1.40;;
317;SDS011;146;53.448;10.228;2023-03-23T14:52:47;5.33;;;2.00;;
317;SDS011;146;53.448;10.228;2023-03-23T14:55:16;1.87;;;1.60;;
317;SDS011;146;53.448;10.228;2023-03-23T14:57:44;2.83;;;2.63;;
317;SDS011;146;53.448;10.228;2023-03-23T15:00:13;1.50;;;1.40;;
317;SDS011;146;53.448;10.228;2023-03-23T15:02:42;2.37;;;1.63;;
317;SDS011;146;53.448;10.228;2023-03-23T15:05:14;2.40;;;1.47;;
317;SDS011;146;53.448;10.228;2023-03-23T15:07:45;4.10;;;1.77;;
317;SDS011;146;53.448;10.228;2023-03-23T15:10:19;4.60;;;2.10;;
317;SDS011;146;53.448;10.228;2023-03-23T15:12:49;2.60;;;2.40;;
317;SDS011;146;53.448;10.228;2023-03-23T15:15:24;3.33;;;2.20;;
317;SDS011;146;53.448;10.228;2023-03-23T15:17:55;2.87;;;2.63;;
317;SDS011;146;53.448;10.228;2023-03-23T15:20:27;5.73;;;3.10;;
317;SDS011;146;53.448;10.228;2023-03-23T15:22:55;4.17;;;2.90;;
317;SDS011;146;53.448;10.228;2023-03-23T15:25:30;2.47;;;2.27;;
317;SDS011;146;53.448;10.228;2023-03-23T15:28:07;3.87;;;2.90;;
317;SDS011;146;53.448;10.228;2023-03-23T15:30:51;5.43;;;2.20;;
317;SDS011;146;53.448;10.228;2023-03-23T15:33:20;2.90;;;2.30;;
317;SDS011;146;53.448;10.228;2023-03-23T15:35:52;2.30;;;2.10;;
317;SDS011;146;53.448;10.228;2023-03-23T15:38:21;2.00;;;1.80;;
317;SDS011;146;53.448;10.228;2023-03-23T15:40:53;3.80;;;2.53;;
317;SDS011;146;53.448;10.228;2023-03-23T15:43:22;7.90;;;2.53;;
317;SDS011;146;53.448;10.228;2023-03-23T15:46:19;2.57;;;1.50;;
317;SDS011;146;53.448;10.228;2023-03-23T15:48:51;1.67;;;1.40;;
317;SDS011;146;53.448;10.228;2023-03-23T15:51:38;3.13;;;1.70;;
317;SDS011;146;53.448;10.228;2023-03-23T15:54:09;4.80;;;2.03;;
317;SDS011;146;53.448;10.228;2023-03-23T15:56:43;2.90;;;1.40;;
317;SDS011;146;53.448;10.228;2023-03-23T15:59:11;3.60;;;1.60;;
317;SDS011;146;53.448;10.228;2023-03-23T16:01:38;3.00;;;1.30;;
317;SDS011;146;53.448;10.228;2023-03-23T16:04:12;2.47;;;1.53;;
317;SDS011;146;53.448;10.228;2023-03-23T16:06:41;0.90;;;0.90;;
317;SDS011;146;53.448;10.228;2023-03-23T16:09:13;4.00;;;1.17;;
317;SDS011;146;53.448;10.228;2023-03-23T16:11:41;4.27;;;1.73;;
317;SDS011;146;53.448;10.228;2023-03-23T16:14:15;1.10;;;1.10;;
317;SDS011;146;53.448;10.228;2023-03-23T16:16:45;2.47;;;1.20;;
317;SDS011;146;53.448;10.228;2023-03-23T16:19:14;1.80;;;1.47;;
317;SDS011;146;53.448;10.228;2023-03-23T16:21:42;2.33;;;1.60;;
317;SDS011;146;53.448;10.228;2023-03-23T16:24:09;4.00;;;1.17;;
317;SDS011;146;53.448;10.228;2023-03-23T16:26:36;3.30;;;1.13;;
317;SDS011;146;53.448;10.228;2023-03-23T16:29:11;1.90;;;1.67;;
317;SDS011;146;53.448;10.228;2023-03-23T16:31:43;3.93;;;2.57;;
317;SDS011;146;53.448;10.228;2023-03-23T16:34:10;7.40;;;5.80;;
317;SDS011;146;53.448;10.228;2023-03-23T16:36:36;6.60;;;5.00;;